N316EV KMVY-KMVY
Flight info
| Callsign | N316EV |
|---|---|
| Flight time | N/A |
| Altitude | 6000 |
| Route | SEY T634 CREAM EEGOR ALIXX RYMES |
| Aircraft | BE58/L-VGD/A |
Departure
| Time | 2026-04-19 11:55 |
|---|---|
| Airport | Martha's Vineyard Airport (KMVY) |
Arrival
| Time | N/A |
|---|---|
| Airport | Martha's Vineyard Airport (KMVY) |
| Time | Latitude | Longitude | Altitude | Speed | Heading |
|---|---|---|---|---|---|
| 2026-04-19 11:44 | 41.38822 | -70.61413 | 49 ft | 0 kts | 37° |
| 2026-04-19 11:49 | 41.38824 | -70.61410 | 49 ft | 2 kts | 36° |
| 2026-04-19 11:49 | 41.38847 | -70.61429 | 49 ft | 6 kts | 308° |
| 2026-04-19 11:49 | 41.38883 | -70.61488 | 50 ft | 7 kts | 287° |
| 2026-04-19 11:50 | 41.38848 | -70.61536 | 50 ft | 8 kts | 219° |
| 2026-04-19 11:50 | 41.38800 | -70.61591 | 49 ft | 9 kts | 224° |
| 2026-04-19 11:50 | 41.38812 | -70.61658 | 49 ft | 8 kts | 308° |
| 2026-04-19 11:50 | 41.38848 | -70.61716 | 50 ft | 8 kts | 310° |
| 2026-04-19 11:51 | 41.38903 | -70.61752 | 51 ft | 11 kts | 7° |
| 2026-04-19 11:51 | 41.38998 | -70.61762 | 52 ft | 15 kts | 354° |
| 2026-04-19 11:51 | 41.39102 | -70.61773 | 55 ft | 14 kts | 356° |
| 2026-04-19 11:51 | 41.39208 | -70.61785 | 57 ft | 14 kts | 355° |
| 2026-04-19 11:52 | 41.39305 | -70.61793 | 58 ft | 13 kts | 355° |
| 2026-04-19 11:52 | 41.39399 | -70.61803 | 59 ft | 13 kts | 355° |
| 2026-04-19 11:52 | 41.39493 | -70.61811 | 59 ft | 13 kts | 356° |
| 2026-04-19 11:52 | 41.39580 | -70.61819 | 61 ft | 11 kts | 354° |
| 2026-04-19 11:53 | 41.39659 | -70.61832 | 62 ft | 11 kts | 352° |
| 2026-04-19 11:53 | 41.39719 | -70.61884 | 64 ft | 10 kts | 310° |
| 2026-04-19 11:53 | 41.39767 | -70.61953 | 65 ft | 10 kts | 315° |
| 2026-04-19 11:53 | 41.39803 | -70.62012 | 65 ft | 4 kts | 196° |
| 2026-04-19 11:54 | 41.39785 | -70.61987 | 65 ft | 9 kts | 131° |
| 2026-04-19 11:54 | 41.39545 | -70.61613 | 61 ft | 92 kts | 130° |
| 2026-04-19 11:54 | 41.39057 | -70.60841 | 269 ft | 121 kts | 131° |
| 2026-04-19 11:54 | 41.38559 | -70.59860 | 543 ft | 139 kts | 114° |
| 2026-04-19 11:55 | 41.38537 | -70.58518 | 855 ft | 155 kts | 79° |
| 2026-04-19 11:55 | 41.39185 | -70.57281 | 1062 ft | 174 kts | 37° |
| 2026-04-19 11:55 | 41.40347 | -70.56835 | 1359 ft | 176 kts | 355° |
| 2026-04-19 11:55 | 41.41421 | -70.57410 | 1688 ft | 167 kts | 308° |
| 2026-04-19 11:56 | 41.41878 | -70.58709 | 2005 ft | 150 kts | 264° |
| 2026-04-19 11:56 | 41.41505 | -70.59887 | 2370 ft | 138 kts | 225° |
| 2026-04-19 11:56 | 41.40804 | -70.60790 | 2680 ft | 141 kts | 221° |
| 2026-04-19 11:56 | 41.40090 | -70.61672 | 2940 ft | 142 kts | 220° |
| 2026-04-19 11:57 | 41.39439 | -70.62684 | 3236 ft | 144 kts | 233° |
| 2026-04-19 11:57 | 41.38960 | -70.63844 | 3521 ft | 144 kts | 240° |
| 2026-04-19 11:57 | 41.38569 | -70.65093 | 3806 ft | 145 kts | 244° |
| 2026-04-19 11:57 | 41.38231 | -70.66356 | 4058 ft | 147 kts | 246° |
| 2026-04-19 11:58 | 41.37914 | -70.67644 | 4298 ft | 147 kts | 247° |
| 2026-04-19 11:58 | 41.37608 | -70.68932 | 4536 ft | 147 kts | 248° |
| 2026-04-19 11:58 | 41.37302 | -70.70240 | 4756 ft | 148 kts | 248° |
| 2026-04-19 11:58 | 41.36989 | -70.71587 | 4927 ft | 151 kts | 248° |
| 2026-04-19 11:59 | 41.36676 | -70.72938 | 5103 ft | 153 kts | 248° |
| 2026-04-19 11:59 | 41.36363 | -70.74293 | 5278 ft | 154 kts | 248° |
| 2026-04-19 11:59 | 41.36045 | -70.75668 | 5457 ft | 154 kts | 248° |
| 2026-04-19 11:59 | 41.35727 | -70.77041 | 5634 ft | 154 kts | 249° |
| 2026-04-19 12:00 | 41.35408 | -70.78419 | 5809 ft | 154 kts | 249° |
| 2026-04-19 12:00 | 41.35092 | -70.79783 | 5981 ft | 154 kts | 249° |
| 2026-04-19 12:00 | 41.34761 | -70.81210 | 5977 ft | 161 kts | 249° |
| 2026-04-19 12:00 | 41.34431 | -70.82635 | 5967 ft | 162 kts | 249° |
| 2026-04-19 12:01 | 41.34095 | -70.84080 | 5966 ft | 162 kts | 249° |
| 2026-04-19 12:01 | 41.33761 | -70.85520 | 5968 ft | 163 kts | 249° |
| 2026-04-19 12:01 | 41.33427 | -70.86955 | 5969 ft | 164 kts | 249° |
| 2026-04-19 12:01 | 41.33086 | -70.88425 | 5969 ft | 166 kts | 249° |
| 2026-04-19 12:02 | 41.32745 | -70.89890 | 5966 ft | 166 kts | 249° |
| 2026-04-19 12:02 | 41.32405 | -70.91348 | 5965 ft | 167 kts | 249° |
| 2026-04-19 12:02 | 41.32061 | -70.92824 | 5970 ft | 167 kts | 249° |
| 2026-04-19 12:02 | 41.31719 | -70.94293 | 5973 ft | 166 kts | 249° |
| 2026-04-19 12:03 | 41.31378 | -70.95751 | 5997 ft | 165 kts | 249° |
| 2026-04-19 12:03 | 41.31036 | -70.97217 | 6013 ft | 165 kts | 249° |
| 2026-04-19 12:03 | 41.30698 | -70.98664 | 6015 ft | 165 kts | 248° |
| 2026-04-19 12:03 | 41.30353 | -71.00136 | 6014 ft | 166 kts | 249° |
| 2026-04-19 12:04 | 41.30010 | -71.01604 | 6013 ft | 166 kts | 249° |
| 2026-04-19 12:04 | 41.29668 | -71.03065 | 6008 ft | 167 kts | 249° |
| 2026-04-19 12:04 | 41.29319 | -71.04553 | 6005 ft | 167 kts | 248° |
| 2026-04-19 12:04 | 41.28978 | -71.06008 | 6005 ft | 167 kts | 249° |
| 2026-04-19 12:05 | 41.28629 | -71.07497 | 6007 ft | 167 kts | 249° |
| 2026-04-19 12:05 | 41.28285 | -71.08965 | 6010 ft | 166 kts | 248° |
| 2026-04-19 12:05 | 41.27939 | -71.10435 | 6011 ft | 167 kts | 249° |
| 2026-04-19 12:05 | 41.27598 | -71.11887 | 6011 ft | 167 kts | 248° |
| 2026-04-19 12:06 | 41.27246 | -71.13384 | 6007 ft | 167 kts | 248° |
| 2026-04-19 12:06 | 41.26902 | -71.14845 | 6004 ft | 167 kts | 248° |
| 2026-04-19 12:06 | 41.26556 | -71.16316 | 5997 ft | 167 kts | 249° |
| 2026-04-19 12:06 | 41.26208 | -71.17791 | 5992 ft | 167 kts | 249° |
| 2026-04-19 12:07 | 41.25862 | -71.19260 | 5987 ft | 167 kts | 248° |
| 2026-04-19 12:07 | 41.25512 | -71.20743 | 5983 ft | 167 kts | 248° |
| 2026-04-19 12:07 | 41.25165 | -71.22213 | 5981 ft | 167 kts | 248° |
| 2026-04-19 12:07 | 41.24815 | -71.23692 | 5982 ft | 167 kts | 248° |
| 2026-04-19 12:08 | 41.24467 | -71.25159 | 5981 ft | 167 kts | 248° |
| 2026-04-19 12:08 | 41.24115 | -71.26646 | 5979 ft | 167 kts | 248° |
| 2026-04-19 12:08 | 41.23766 | -71.28115 | 5983 ft | 169 kts | 248° |
| 2026-04-19 12:08 | 41.23411 | -71.29611 | 5981 ft | 172 kts | 248° |
| 2026-04-19 12:09 | 41.23051 | -71.31126 | 5982 ft | 173 kts | 249° |
| 2026-04-19 12:09 | 41.22686 | -71.32670 | 5984 ft | 174 kts | 249° |
| 2026-04-19 12:09 | 41.22324 | -71.34196 | 5982 ft | 175 kts | 249° |
| 2026-04-19 12:09 | 41.21954 | -71.35753 | 5986 ft | 175 kts | 249° |
| 2026-04-19 12:10 | 41.21587 | -71.37297 | 5983 ft | 175 kts | 249° |
| 2026-04-19 12:10 | 41.21221 | -71.38837 | 5984 ft | 175 kts | 249° |
| 2026-04-19 12:10 | 41.20854 | -71.40380 | 5981 ft | 175 kts | 249° |
| 2026-04-19 12:10 | 41.20488 | -71.41918 | 5989 ft | 175 kts | 249° |
| 2026-04-19 12:11 | 41.20118 | -71.43469 | 5987 ft | 176 kts | 248° |
| 2026-04-19 12:11 | 41.19754 | -71.44996 | 5989 ft | 175 kts | 248° |
| 2026-04-19 12:11 | 41.19385 | -71.46542 | 5990 ft | 175 kts | 248° |
| 2026-04-19 12:11 | 41.19013 | -71.48103 | 5993 ft | 175 kts | 248° |
| 2026-04-19 12:12 | 41.18646 | -71.49635 | 5991 ft | 175 kts | 248° |
| 2026-04-19 12:12 | 41.18276 | -71.51187 | 5993 ft | 175 kts | 248° |
| 2026-04-19 12:12 | 41.17910 | -71.52713 | 5991 ft | 175 kts | 248° |
| 2026-04-19 12:12 | 41.17543 | -71.54247 | 5985 ft | 175 kts | 248° |
| 2026-04-19 12:13 | 41.17170 | -71.55804 | 5997 ft | 175 kts | 249° |
| 2026-04-19 12:13 | 41.16811 | -71.57346 | 5997 ft | 176 kts | 252° |
| 2026-04-19 12:13 | 41.16710 | -71.58971 | 5992 ft | 179 kts | 262° |
| 2026-04-19 12:13 | 41.16686 | -71.60618 | 5990 ft | 179 kts | 263° |
| 2026-04-19 12:14 | 41.16663 | -71.62274 | 5990 ft | 179 kts | 262° |
| 2026-04-19 12:14 | 41.16637 | -71.63927 | 5991 ft | 179 kts | 263° |
| 2026-04-19 12:14 | 41.16611 | -71.65593 | 5993 ft | 179 kts | 262° |
| 2026-04-19 12:14 | 41.16586 | -71.67236 | 5996 ft | 179 kts | 262° |
| 2026-04-19 12:15 | 41.16559 | -71.68903 | 5996 ft | 179 kts | 262° |
| 2026-04-19 12:15 | 41.16531 | -71.70541 | 5995 ft | 179 kts | 262° |
| 2026-04-19 12:15 | 41.16504 | -71.72202 | 5993 ft | 179 kts | 262° |
| 2026-04-19 12:15 | 41.16476 | -71.73859 | 5990 ft | 179 kts | 262° |
| 2026-04-19 12:16 | 41.16448 | -71.75497 | 5988 ft | 179 kts | 262° |
| 2026-04-19 12:16 | 41.16420 | -71.77154 | 5990 ft | 179 kts | 262° |
| 2026-04-19 12:16 | 41.16391 | -71.78810 | 5990 ft | 179 kts | 262° |
| 2026-04-19 12:16 | 41.16362 | -71.80459 | 5988 ft | 179 kts | 262° |
| 2026-04-19 12:17 | 41.16333 | -71.82108 | 5985 ft | 180 kts | 262° |
| 2026-04-19 12:17 | 41.16304 | -71.83765 | 5984 ft | 179 kts | 262° |
| 2026-04-19 12:17 | 41.16274 | -71.85416 | 5981 ft | 179 kts | 262° |
| 2026-04-19 12:17 | 41.16245 | -71.87064 | 5977 ft | 179 kts | 261° |
| 2026-04-19 12:18 | 41.16215 | -71.88721 | 5974 ft | 179 kts | 262° |
| 2026-04-19 12:18 | 41.16184 | -71.90375 | 5973 ft | 179 kts | 261° |
| 2026-04-19 12:18 | 41.16154 | -71.92017 | 5973 ft | 179 kts | 262° |
| 2026-04-19 12:18 | 41.16123 | -71.93678 | 5972 ft | 179 kts | 262° |
| 2026-04-19 12:19 | 41.16093 | -71.95311 | 5970 ft | 179 kts | 261° |
| 2026-04-19 12:19 | 41.16061 | -71.96964 | 5970 ft | 179 kts | 262° |
| 2026-04-19 12:19 | 41.16029 | -71.98630 | 5970 ft | 179 kts | 262° |
| 2026-04-19 12:19 | 41.15998 | -72.00274 | 5967 ft | 179 kts | 261° |
| 2026-04-19 12:20 | 41.15966 | -72.01939 | 5966 ft | 179 kts | 262° |
| 2026-04-19 12:20 | 41.15934 | -72.03582 | 5965 ft | 179 kts | 261° |
| 2026-04-19 12:20 | 41.15901 | -72.05244 | 5968 ft | 179 kts | 262° |
| 2026-04-19 12:20 | 41.15868 | -72.06901 | 5966 ft | 180 kts | 262° |
| 2026-04-19 12:21 | 41.15835 | -72.08569 | 5963 ft | 180 kts | 262° |
| 2026-04-19 12:21 | 41.15802 | -72.10239 | 5962 ft | 180 kts | 262° |
| 2026-04-19 12:21 | 41.15768 | -72.11902 | 5957 ft | 180 kts | 262° |
| 2026-04-19 12:21 | 41.15734 | -72.13557 | 5960 ft | 180 kts | 262° |
| 2026-04-19 12:22 | 41.15701 | -72.15218 | 5964 ft | 179 kts | 261° |
| 2026-04-19 12:22 | 41.15667 | -72.16876 | 5965 ft | 179 kts | 262° |
| 2026-04-19 12:22 | 41.15632 | -72.18527 | 5970 ft | 179 kts | 261° |
| 2026-04-19 12:22 | 41.15597 | -72.20173 | 5969 ft | 179 kts | 261° |
| 2026-04-19 12:23 | 41.15564 | -72.21819 | 5966 ft | 176 kts | 261° |
| 2026-04-19 12:23 | 41.15531 | -72.23431 | 5964 ft | 174 kts | 261° |
| 2026-04-19 12:23 | 41.15496 | -72.25025 | 5970 ft | 173 kts | 261° |
| 2026-04-19 12:23 | 41.15462 | -72.26622 | 5972 ft | 172 kts | 261° |
| 2026-04-19 12:24 | 41.15427 | -72.28202 | 5973 ft | 172 kts | 261° |
| 2026-04-19 12:24 | 41.15392 | -72.29802 | 5964 ft | 172 kts | 261° |
| 2026-04-19 12:24 | 41.15357 | -72.31392 | 5972 ft | 171 kts | 261° |
| 2026-04-19 12:24 | 41.15322 | -72.32961 | 5982 ft | 170 kts | 261° |
| 2026-04-19 12:25 | 41.15287 | -72.34533 | 5984 ft | 170 kts | 261° |
| 2026-04-19 12:25 | 41.15252 | -72.36101 | 5987 ft | 170 kts | 261° |
| 2026-04-19 12:25 | 41.15217 | -72.37678 | 5984 ft | 171 kts | 261° |
| 2026-04-19 12:25 | 41.15182 | -72.39241 | 5983 ft | 171 kts | 261° |
| 2026-04-19 12:26 | 41.15146 | -72.40815 | 5983 ft | 171 kts | 261° |
| 2026-04-19 12:26 | 41.15108 | -72.42423 | 5982 ft | 174 kts | 262° |
| 2026-04-19 12:26 | 41.15071 | -72.44029 | 5987 ft | 176 kts | 261° |
| 2026-04-19 12:26 | 41.15034 | -72.45653 | 5980 ft | 178 kts | 261° |
| 2026-04-19 12:27 | 41.14996 | -72.47304 | 5977 ft | 178 kts | 261° |
| 2026-04-19 12:27 | 41.14956 | -72.48955 | 5979 ft | 179 kts | 262° |
| 2026-04-19 12:27 | 41.14918 | -72.50594 | 5980 ft | 180 kts | 261° |
| 2026-04-19 12:27 | 41.14886 | -72.52268 | 5980 ft | 181 kts | 263° |
| 2026-04-19 12:28 | 41.14956 | -72.55613 | 5977 ft | 182 kts | 264° |
| 2026-04-19 12:28 | 41.14994 | -72.57303 | 5978 ft | 183 kts | 264° |
| 2026-04-19 12:28 | 41.15031 | -72.58964 | 5979 ft | 183 kts | 264° |
| 2026-04-19 12:29 | 41.15070 | -72.60668 | 5982 ft | 183 kts | 264° |
| 2026-04-19 12:29 | 41.15105 | -72.62338 | 5989 ft | 183 kts | 264° |
| 2026-04-19 12:29 | 41.15142 | -72.64033 | 5985 ft | 183 kts | 265° |
| 2026-04-19 12:29 | 41.15178 | -72.65713 | 5985 ft | 183 kts | 264° |
| 2026-04-19 12:30 | 41.15214 | -72.67403 | 5988 ft | 183 kts | 264° |
| 2026-04-19 12:30 | 41.15249 | -72.69080 | 5985 ft | 183 kts | 264° |
| 2026-04-19 12:30 | 41.15285 | -72.70773 | 5985 ft | 183 kts | 264° |
| 2026-04-19 12:30 | 41.15319 | -72.72440 | 5983 ft | 183 kts | 264° |
| 2026-04-19 12:31 | 41.15355 | -72.74139 | 5984 ft | 182 kts | 264° |
| 2026-04-19 12:31 | 41.15389 | -72.75813 | 5984 ft | 183 kts | 264° |
| 2026-04-19 12:31 | 41.15424 | -72.77499 | 5987 ft | 182 kts | 264° |
| 2026-04-19 12:31 | 41.15457 | -72.79179 | 5985 ft | 183 kts | 264° |
| 2026-04-19 12:32 | 41.15491 | -72.80863 | 5985 ft | 183 kts | 264° |
| 2026-04-19 12:32 | 41.15524 | -72.82549 | 5984 ft | 184 kts | 264° |
| 2026-04-19 12:32 | 41.15559 | -72.84225 | 5979 ft | 180 kts | 264° |
| 2026-04-19 12:32 | 41.15592 | -72.85891 | 5975 ft | 178 kts | 264° |
| 2026-04-19 12:33 | 41.15624 | -72.87519 | 5974 ft | 176 kts | 263° |
| 2026-04-19 12:33 | 41.15654 | -72.89123 | 5971 ft | 175 kts | 264° |
| 2026-04-19 12:33 | 41.15685 | -72.90733 | 5984 ft | 174 kts | 264° |
| 2026-04-19 12:33 | 41.15715 | -72.92333 | 5977 ft | 173 kts | 262° |
| 2026-04-19 12:34 | 41.15745 | -72.93922 | 5972 ft | 172 kts | 263° |
| 2026-04-19 12:34 | 41.15775 | -72.95520 | 5976 ft | 172 kts | 264° |
| 2026-04-19 12:34 | 41.15804 | -72.97097 | 5985 ft | 172 kts | 264° |
| 2026-04-19 12:34 | 41.15834 | -72.98684 | 5983 ft | 172 kts | 263° |
| 2026-04-19 12:35 | 41.15863 | -73.00279 | 5979 ft | 173 kts | 263° |
| 2026-04-19 12:35 | 41.15892 | -73.01878 | 5981 ft | 172 kts | 263° |
| 2026-04-19 12:35 | 41.15920 | -73.03451 | 5982 ft | 173 kts | 264° |
| 2026-04-19 12:35 | 41.15949 | -73.05053 | 5984 ft | 173 kts | 263° |
| 2026-04-19 12:36 | 41.15977 | -73.06639 | 5981 ft | 173 kts | 264° |
| 2026-04-19 12:36 | 41.16007 | -73.08250 | 5981 ft | 173 kts | 264° |
| 2026-04-19 12:36 | 41.16034 | -73.09830 | 5982 ft | 173 kts | 263° |
| 2026-04-19 12:36 | 41.16063 | -73.11429 | 5982 ft | 173 kts | 264° |
| 2026-04-19 12:37 | 41.16121 | -73.13032 | 5985 ft | 175 kts | 268° |
| 2026-04-19 12:37 | 41.16248 | -73.14643 | 5978 ft | 176 kts | 269° |
| 2026-04-19 12:37 | 41.16375 | -73.16246 | 5804 ft | 172 kts | 269° |
| 2026-04-19 12:37 | 41.16496 | -73.17791 | 5622 ft | 169 kts | 268° |
| 2026-04-19 12:38 | 41.16615 | -73.19341 | 5433 ft | 167 kts | 268° |
| 2026-04-19 12:38 | 41.16732 | -73.20866 | 5245 ft | 166 kts | 269° |
| 2026-04-19 12:38 | 41.16850 | -73.22400 | 5055 ft | 165 kts | 269° |
| 2026-04-19 12:38 | 41.16964 | -73.23909 | 4867 ft | 165 kts | 270° |
| 2026-04-19 12:39 | 41.17080 | -73.25425 | 4682 ft | 165 kts | 271° |
| 2026-04-19 12:39 | 41.17195 | -73.26937 | 4501 ft | 165 kts | 269° |
| 2026-04-19 12:39 | 41.17310 | -73.28433 | 4303 ft | 165 kts | 271° |
| 2026-04-19 12:39 | 41.17426 | -73.29960 | 4116 ft | 165 kts | 269° |
| 2026-04-19 12:40 | 41.17540 | -73.31467 | 3940 ft | 165 kts | 273° |
| 2026-04-19 12:40 | 41.17655 | -73.32980 | 3773 ft | 165 kts | 272° |
| 2026-04-19 12:40 | 41.17770 | -73.34489 | 3592 ft | 164 kts | 272° |
| 2026-04-19 12:40 | 41.17885 | -73.36008 | 3409 ft | 164 kts | 272° |
| 2026-04-19 12:41 | 41.17999 | -73.37524 | 3226 ft | 165 kts | 273° |
| 2026-04-19 12:41 | 41.18114 | -73.39040 | 3042 ft | 166 kts | 275° |
| 2026-04-19 12:41 | 41.18444 | -73.40511 | 2931 ft | 165 kts | 278° |
| 2026-04-19 12:41 | 41.18550 | -73.42025 | 2946 ft | 168 kts | 274° |
| 2026-04-19 12:42 | 41.18680 | -73.43565 | 3007 ft | 168 kts | 276° |
| 2026-04-19 12:42 | 41.18844 | -73.45125 | 3004 ft | 171 kts | 277° |
| 2026-04-19 12:42 | 41.19024 | -73.46697 | 2992 ft | 172 kts | 275° |
| 2026-04-19 12:42 | 41.19206 | -73.48261 | 2998 ft | 168 kts | 278° |
| 2026-04-19 12:43 | 41.19385 | -73.49764 | 2983 ft | 165 kts | 277° |
| 2026-04-19 12:43 | 41.19562 | -73.51263 | 2993 ft | 163 kts | 279° |
| 2026-04-19 12:43 | 41.19739 | -73.52751 | 2989 ft | 162 kts | 278° |
| 2026-04-19 12:43 | 41.19913 | -73.54213 | 2989 ft | 161 kts | 278° |
| 2026-04-19 12:44 | 41.20087 | -73.55684 | 3003 ft | 160 kts | 278° |
| 2026-04-19 12:44 | 41.20261 | -73.57158 | 3004 ft | 161 kts | 278° |
| 2026-04-19 12:44 | 41.20433 | -73.58613 | 3003 ft | 161 kts | 278° |
| 2026-04-19 12:44 | 41.20607 | -73.60085 | 2972 ft | 163 kts | 278° |
| 2026-04-19 12:45 | 41.20779 | -73.61543 | 2814 ft | 158 kts | 278° |
| 2026-04-19 12:45 | 41.20947 | -73.62964 | 2647 ft | 155 kts | 279° |
| 2026-04-19 12:45 | 41.21112 | -73.64371 | 2479 ft | 153 kts | 279° |
| 2026-04-19 12:45 | 41.21272 | -73.65726 | 2497 ft | 145 kts | 278° |
| 2026-04-19 12:46 | 41.21425 | -73.67030 | 2498 ft | 141 kts | 279° |
| 2026-04-19 12:46 | 41.21575 | -73.68314 | 2503 ft | 141 kts | 279° |
| 2026-04-19 12:46 | 41.21725 | -73.69591 | 2401 ft | 141 kts | 279° |
| 2026-04-19 12:46 | 41.21812 | -73.70895 | 2256 ft | 142 kts | 271° |
| 2026-04-19 12:47 | 41.21699 | -73.72192 | 2138 ft | 133 kts | 258° |
| 2026-04-19 12:47 | 41.21444 | -73.73261 | 2076 ft | 117 kts | 249° |
| 2026-04-19 12:47 | 41.21074 | -73.74221 | 1981 ft | 115 kts | 241° |
| 2026-04-19 12:47 | 41.20622 | -73.75043 | 2002 ft | 108 kts | 233° |
| 2026-04-19 12:48 | 41.20097 | -73.75751 | 1994 ft | 106 kts | 226° |
| 2026-04-19 12:48 | 41.19512 | -73.76334 | 2007 ft | 106 kts | 216° |
| 2026-04-19 12:48 | 41.18859 | -73.76807 | 2006 ft | 108 kts | 208° |
| 2026-04-19 12:48 | 41.18144 | -73.77155 | 2000 ft | 111 kts | 199° |
| 2026-04-19 12:49 | 41.17371 | -73.77357 | 2014 ft | 114 kts | 189° |
| 2026-04-19 12:49 | 41.16557 | -73.77395 | 2010 ft | 117 kts | 181° |
| 2026-04-19 12:49 | 41.15751 | -73.77258 | 2017 ft | 118 kts | 170° |
| 2026-04-19 12:49 | 41.14962 | -73.76942 | 1999 ft | 119 kts | 160° |
| 2026-04-19 12:50 | 41.14212 | -73.76453 | 1949 ft | 118 kts | 152° |
| 2026-04-19 12:50 | 41.13528 | -73.75913 | 1812 ft | 111 kts | 152° |
| 2026-04-19 12:50 | 41.12874 | -73.75407 | 1678 ft | 107 kts | 152° |
| 2026-04-19 12:50 | 41.12243 | -73.74922 | 1544 ft | 102 kts | 152° |
| 2026-04-19 12:51 | 41.11644 | -73.74464 | 1412 ft | 99 kts | 151° |
| 2026-04-19 12:51 | 41.11056 | -73.74012 | 1283 ft | 97 kts | 151° |
| 2026-04-19 12:51 | 41.10475 | -73.73567 | 1150 ft | 95 kts | 151° |
| 2026-04-19 12:51 | 41.09909 | -73.73134 | 1025 ft | 94 kts | 151° |
| 2026-04-19 12:52 | 41.09338 | -73.72696 | 898 ft | 93 kts | 151° |
| 2026-04-19 12:52 | 41.08785 | -73.72272 | 774 ft | 92 kts | 148° |
| 2026-04-19 12:52 | 41.08226 | -73.71845 | 642 ft | 91 kts | 150° |
| 2026-04-19 12:52 | 41.07682 | -73.71426 | 511 ft | 91 kts | 149° |
| 2026-04-19 12:53 | 41.07160 | -73.71030 | 415 ft | 67 kts | 149° |
| 2026-04-19 12:53 | 41.06942 | -73.70861 | 408 ft | 23 kts | 151° |
| 2026-04-19 12:53 | 41.06824 | -73.70773 | 404 ft | 9 kts | 160° |
| 2026-04-19 12:53 | 41.06791 | -73.70808 | 404 ft | 4 kts | 240° |
| 2026-04-19 12:54 | 41.06773 | -73.70853 | 403 ft | 10 kts | 240° |
| 2026-04-19 12:54 | 41.06718 | -73.70955 | 400 ft | 14 kts | 233° |
| 2026-04-19 12:54 | 41.06656 | -73.71062 | 399 ft | 14 kts | 234° |
| 2026-04-19 12:54 | 41.06574 | -73.71143 | 399 ft | 14 kts | 211° |
| 2026-04-19 12:55 | 41.06486 | -73.71219 | 399 ft | 14 kts | 214° |
| 2026-04-19 12:55 | 41.06438 | -73.71217 | 399 ft | 4 kts | 135° |
| 2026-04-19 12:55 | 41.06432 | -73.71209 | 399 ft | 0 kts | 135° |
| 2026-04-19 12:55 | 41.06432 | -73.71203 | 399 ft | 0 kts | 47° |
| 2026-04-19 12:56 | 41.06438 | -73.71199 | 399 ft | 4 kts | 357° |
| 2026-04-19 12:57 | 41.06480 | -73.71223 | 399 ft | 7 kts | 10° |
| 2026-04-19 12:57 | 41.06502 | -73.71171 | 399 ft | 7 kts | 102° |
| 2026-04-19 12:57 | 41.06488 | -73.71098 | 398 ft | 9 kts | 100° |
| 2026-04-19 12:57 | 41.06459 | -73.71029 | 398 ft | 8 kts | 179° |
| 2026-04-19 12:58 | 41.06398 | -73.71043 | 397 ft | 7 kts | 176° |
| 2026-04-19 12:58 | 41.06387 | -73.71008 | 396 ft | 2 kts | 41° |
| 2026-04-19 12:58 | 41.06389 | -73.71006 | 396 ft | 0 kts | 12° |